Time;durP1;ratioP1;P1;durP2;ratioP2;P2;SDS_P1;SDS_P2;PMS_P1;PMS_P2;Temp;Humidity;BMP_temperature;BMP_pressure;BME280_temperature;BME280_humidity;BME280_pressure;Samples;Min_cycle;Max_cycle;Signal;HPM_P1;HPM_P2
2022/01/25 00:26:31;;;;;;;242.52;27.80;;;-1.80;99.90;;;;;;5033042;28;20527;-56
2022/01/25 00:29:13;;;;;;;141.50;25.85;;;-1.80;99.90;;;;;;5032999;28;20389;-55
2022/01/25 00:31:41;;;;;;;61.75;24.42;;;-1.70;99.90;;;;;;5033291;28;20029;-53
2022/01/25 00:34:07;;;;;;;93.93;25.85;;;-1.60;99.90;;;;;;5033810;28;20410;-55
2022/01/25 00:36:34;;;;;;;163.77;27.50;;;-1.60;99.90;;;;;;5033420;28;20380;-55
2022/01/25 00:39:00;;;;;;;107.10;26.20;;;-1.60;99.90;;;;;;5033173;28;20048;-55
2022/01/25 00:41:27;;;;;;;158.75;29.33;;;-1.50;99.90;;;;;;5033687;28;20017;-54
2022/01/25 00:43:53;;;;;;;77.00;26.25;;;-1.50;99.90;;;;;;5033497;28;20041;-55
2022/01/25 00:46:22;;;;;;;138.85;30.52;;;-1.40;99.90;;;;;;5033389;28;20029;-55
2022/01/25 00:48:50;;;;;;;170.95;30.27;;;-1.30;99.90;;;;;;5033250;28;20724;-55
2022/01/25 00:53:56;;;;;;;145.40;27.15;;;-1.00;99.90;;;;;;5032621;28;20029;-56
2022/01/25 00:56:23;;;;;;;180.35;29.60;;;-0.90;99.90;;;;;;5033550;28;20440;-55
2022/01/25 00:58:50;;;;;;;264.08;31.35;;;-0.80;99.90;;;;;;5033238;28;20667;-55
2022/01/25 01:01:17;;;;;;;284.98;32.88;;;-0.70;99.90;;;;;;5032719;28;20025;-53
2022/01/25 01:03:43;;;;;;;196.85;34.25;;;-0.60;99.90;;;;;;5032211;28;20064;-53
2022/01/25 01:06:08;;;;;;;118.82;26.98;;;-0.60;99.90;;;;;;5030785;28;20053;-54
2022/01/25 01:08:34;;;;;;;150.65;27.45;;;-0.60;99.90;;;;;;5032350;28;20083;-53
2022/01/25 01:11:03;;;;;;;343.23;35.55;;;-0.50;99.90;;;;;;5032300;28;20040;-52
2022/01/25 01:43:30;;;;;;;452.85;39.83;;;-0.50;99.90;;;;;;5032609;28;20033;-53
2022/01/25 01:48:30;;;;;;;221.77;30.02;;;-0.60;99.90;;;;;;5032127;28;20029;-53
2022/01/25 01:51:04;;;;;;;226.23;29.00;;;-0.50;99.90;;;;;;5031580;28;20116;-54
2022/01/25 01:53:31;;;;;;;471.33;37.60;;;-0.60;99.90;;;;;;5030886;28;20025;-53
2022/01/25 01:55:57;;;;;;;435.13;36.72;;;-0.60;99.90;;;;;;5030772;28;20032;-52
2022/01/25 01:58:23;;;;;;;199.68;31.35;;;-0.60;99.90;;;;;;5030823;28;20079;-55
2022/01/25 02:00:49;;;;;;;418.50;36.35;;;-0.60;99.90;;;;;;5030072;28;20029;-55
2022/01/25 02:03:15;;;;;;;337.63;36.83;;;-0.60;99.90;;;;;;5029216;28;20053;-57
2022/01/25 02:05:42;;;;;;;332.45;34.40;;;-0.60;99.90;;;;;;5030878;28;20549;-53
2022/01/25 02:08:08;;;;;;;347.42;35.95;;;-0.60;99.90;;;;;;5031842;28;20022;-54
2022/01/25 02:10:34;;;;;;;576.05;42.88;;;-0.60;99.90;;;;;;5031979;28;20026;-53
2022/01/25 02:13:03;;;;;;;430.40;35.22;;;-0.70;99.90;;;;;;5031656;28;20385;-55
2022/01/25 02:15:28;;;;;;;447.23;35.97;;;-0.60;99.90;;;;;;5031793;28;20052;-56
2022/01/25 02:22:25;;;;;;;298.25;32.25;;;-0.80;99.90;;;;;;5030365;28;20469;-55
2022/01/25 02:23:29;;;;;;;437.25;35.28;;;-0.70;99.90;;;;;;5031634;28;20396;-54
2022/01/25 02:25:57;;;;;;;150.77;27.38;;;-0.70;99.90;;;;;;5031408;28;20035;-55
2022/01/25 02:28:28;;;;;;;342.25;66.93;;;-0.70;99.90;;;;;;5030743;28;20032;-55
2022/01/25 02:30:55;;;;;;;338.80;33.72;;;-0.60;99.90;;;;;;5030727;28;20083;-53
2022/01/25 02:33:20;;;;;;;363.88;53.83;;;-0.60;99.90;;;;;;5031311;28;20017;-53
2022/01/25 02:35:46;;;;;;;390.00;35.55;;;-0.60;99.90;;;;;;5031137;28;20067;-55
2022/01/25 02:38:23;;;;;;;215.85;24.90;;;-0.60;99.90;;;;;;5030948;28;20028;-55
2022/01/25 02:40:49;;;;;;;405.98;34.40;;;-0.80;99.90;;;;;;5030026;28;20100;-54
2022/01/25 02:43:17;;;;;;;431.50;42.35;;;-0.70;99.90;;;;;;5031300;28;20021;-54
2022/01/25 02:45:46;;;;;;;311.35;42.00;;;-0.80;99.90;;;;;;5031415;28;20030;-54
2022/01/25 02:48:30;;;;;;;227.85;32.65;;;-0.70;99.90;;;;;;5030041;28;20112;-53
2022/01/25 02:51:01;;;;;;;105.18;32.15;;;-0.70;99.90;;;;;;5031467;28;20029;-53
2022/01/25 02:53:28;;;;;;;290.20;34.33;;;-0.70;99.90;;;;;;5031135;28;20388;-54
2022/01/25 02:55:55;;;;;;;159.90;29.98;;;-0.70;99.90;;;;;;5031004;28;20485;-52
2022/01/25 02:58:21;;;;;;;231.68;40.30;;;-0.60;99.90;;;;;;5031065;28;20405;-52
2022/01/25 03:00:47;;;;;;;215.40;51.85;;;-0.60;99.90;;;;;;5030725;28;20032;-52
2022/01/25 03:03:13;;;;;;;198.82;30.90;;;-0.50;99.90;;;;;;5031105;28;20048;-53
2022/01/25 03:05:39;;;;;;;216.27;36.95;;;-0.50;99.90;;;;;;5030991;28;20030;-56
2022/01/25 03:08:07;;;;;;;136.52;35.92;;;-0.50;99.90;;;;;;5031061;28;20033;-55
2022/01/25 03:10:39;;;;;;;119.35;27.35;;;-0.40;99.90;;;;;;5029940;28;20025;-53
2022/01/25 03:13:08;;;;;;;245.27;30.63;;;-0.40;99.90;;;;;;5029899;28;20025;-55
2022/01/25 03:21:16;;;;;;;324.27;36.95;;;-0.50;99.90;;;;;;5031076;28;20041;-54
2022/01/25 03:23:43;;;;;;;254.90;35.95;;;-0.60;99.90;;;;;;5031082;28;20227;-54
2022/01/25 03:26:09;;;;;;;228.68;35.08;;;-0.60;99.90;;;;;;5031075;28;20036;-54
2022/01/25 03:28:35;;;;;;;274.83;36.55;;;-0.70;99.90;;;;;;5031049;28;20107;-55
2022/01/25 03:31:01;;;;;;;198.70;32.15;;;-0.60;99.90;;;;;;5029578;28;20026;-54
2022/01/25 03:33:27;;;;;;;75.07;29.95;;;-0.60;99.90;;;;;;5029822;28;20036;-55
2022/01/25 03:35:53;;;;;;;189.32;34.67;;;-0.70;99.90;;;;;;5030742;28;20125;-53
2022/01/25 03:38:19;;;;;;;231.98;33.50;;;-0.70;99.90;;;;;;5030510;28;20029;-53
2022/01/25 03:40:45;;;;;;;134.73;33.53;;;-0.70;99.90;;;;;;5029712;28;20032;-52
2022/01/25 03:43:14;;;;;;;281.23;33.58;;;-0.60;99.90;;;;;;5029906;28;20041;-53
2022/01/25 03:45:43;;;;;;;300.35;35.85;;;-0.60;99.90;;;;;;5030180;28;20033;-52
2022/01/25 03:50:43;;;;;;;277.85;34.67;;;-0.70;99.90;;;;;;5032591;28;20029;-55
2022/01/25 03:53:10;;;;;;;263.75;39.00;;;-0.70;99.90;;;;;;5033889;28;20036;-55
2022/01/25 03:55:37;;;;;;;329.05;36.35;;;-0.70;99.90;;;;;;5033269;28;20488;-53
2022/01/25 03:58:03;;;;;;;168.52;33.03;;;-0.80;99.90;;;;;;5033297;28;20432;-53
2022/01/25 04:00:29;;;;;;;199.93;32.60;;;-0.80;99.90;;;;;;5033467;28;20056;-54
2022/01/25 04:03:02;;;;;;;241.55;32.17;;;-0.70;99.90;;;;;;5033179;28;20033;-55
2022/01/25 04:05:38;;;;;;;157.02;31.83;;;-0.70;99.90;;;;;;5033742;28;20025;-55
2022/01/25 04:08:04;;;;;;;169.57;29.13;;;-0.80;99.90;;;;;;5034119;28;20029;-55
2022/01/25 04:10:31;;;;;;;77.63;26.05;;;-0.80;99.90;;;;;;5034082;28;20088;-55
2022/01/25 04:12:57;;;;;;;50.38;26.88;;;-0.80;99.90;;;;;;5033971;28;20025;-54
2022/01/25 04:15:23;;;;;;;124.45;28.13;;;-0.80;99.90;;;;;;5034035;28;20125;-52
2022/01/25 04:17:56;;;;;;;87.78;30.52;;;-0.80;99.90;;;;;;5033781;28;20045;-56
2022/01/25 04:20:34;;;;;;;153.02;36.80;;;-0.80;99.90;;;;;;5034156;28;20029;-54
2022/01/25 04:25:44;;;;;;;89.00;28.95;;;-0.80;99.90;;;;;;5033718;28;20037;-54
2022/01/25 04:28:09;;;;;;;70.90;23.80;;;-0.80;99.90;;;;;;5033622;28;20694;-56
2022/01/25 04:30:35;;;;;;;94.88;26.75;;;-0.80;99.90;;;;;;5033942;28;20080;-54
2022/01/25 04:33:05;;;;;;;91.20;24.70;;;-0.80;99.90;;;;;;5033760;28;20079;-52
2022/01/25 04:49:24;;;;;;;70.63;27.13;;;-1.00;99.90;;;;;;5033350;28;20036;-55
2022/01/25 04:57:43;;;;;;;104.68;25.17;;;-1.00;99.90;;;;;;5033295;28;20473;-54
2022/01/25 04:59:44;;;;;;;111.20;35.95;;;-1.00;99.90;;;;;;5032573;28;20029;-54
2022/01/25 05:02:16;;;;;;;111.25;30.52;;;-1.10;99.90;;;;;;5032664;28;20020;-53
2022/01/25 05:05:06;;;;;;;119.72;27.30;;;-1.00;99.90;;;;;;5033019;28;20021;-56
2022/01/25 05:07:38;;;;;;;108.47;27.20;;;-0.90;99.90;;;;;;5032915;28;20052;-56
2022/01/25 05:10:04;;;;;;;169.10;27.17;;;-1.00;99.90;;;;;;5031780;28;20027;-54
2022/01/25 05:12:42;;;;;;;118.07;30.42;;;-1.10;99.90;;;;;;5031852;28;20026;-55
2022/01/25 05:18:01;;;;;;;192.23;30.83;;;-1.20;99.90;;;;;;5032345;28;20048;-57
2022/01/25 05:23:11;;;;;;;96.47;28.42;;;-1.20;99.90;;;;;;5031997;28;20091;-56
2022/01/25 05:25:37;;;;;;;145.32;29.70;;;-1.10;99.90;;;;;;5031960;28;20476;-58
2022/01/25 05:28:03;;;;;;;172.35;30.58;;;-1.10;99.90;;;;;;5031661;28;20084;-58
2022/01/25 05:30:28;;;;;;;42.78;24.75;;;-1.20;99.90;;;;;;5031859;28;20453;-55
2022/01/25 05:32:54;;;;;;;103.30;25.65;;;-1.20;99.90;;;;;;5031326;28;20075;-57
2022/01/25 05:35:19;;;;;;;147.45;31.52;;;-1.10;99.90;;;;;;5031265;28;20068;-57
2022/01/25 05:37:45;;;;;;;128.75;27.85;;;-1.00;99.90;;;;;;5030553;28;20024;-56
2022/01/25 05:40:16;;;;;;;133.00;26.23;;;-1.10;99.90;;;;;;5030682;28;20029;-56
2022/01/25 05:45:50;;;;;;;60.13;26.48;;;-1.20;99.90;;;;;;5040363;28;20045;-57
2022/01/25 05:48:16;;;;;;;57.38;25.02;;;-1.10;99.90;;;;;;5032413;28;20029;-55
2022/01/25 05:50:41;;;;;;;113.30;27.23;;;-1.10;99.90;;;;;;5032222;28;20026;-57
2022/01/25 05:53:07;;;;;;;116.45;28.25;;;-1.00;99.90;;;;;;5032310;28;20029;-57
2022/01/25 05:55:33;;;;;;;74.25;28.10;;;-1.10;99.90;;;;;;5032239;28;20022;-57
2022/01/25 05:57:58;;;;;;;97.45;29.67;;;-1.00;99.90;;;;;;5031981;28;20033;-55
2022/01/25 06:00:24;;;;;;;78.97;35.15;;;-0.90;99.90;;;;;;5031573;28;20079;-57
2022/01/25 06:02:54;;;;;;;76.22;29.70;;;-1.00;99.90;;;;;;5031999;28;20037;-55
2022/01/25 06:05:20;;;;;;;81.43;37.03;;;-0.90;99.90;;;;;;5032069;28;20037;-57
2022/01/25 06:07:45;;;;;;;136.52;22.40;;;-0.80;99.90;;;;;;5031934;28;20453;-55
2022/01/25 06:10:11;;;;;;;139.32;23.80;;;-0.90;99.90;;;;;;5031927;28;20028;-56
2022/01/25 06:12:37;;;;;;;149.98;24.88;;;-0.90;99.90;;;;;;5031050;28;20030;-56
2022/01/25 06:15:03;;;;;;;94.47;22.48;;;-1.00;99.90;;;;;;5031244;28;20404;-57
2022/01/25 06:17:29;;;;;;;76.88;22.65;;;-1.10;99.90;;;;;;5031852;28;20028;-57
2022/01/25 06:19:54;;;;;;;140.07;25.15;;;-1.00;99.90;;;;;;5031644;28;20029;-57
2022/01/25 06:22:20;;;;;;;39.22;22.40;;;-1.00;99.90;;;;;;5032163;28;20026;-57
2022/01/25 06:24:46;;;;;;;75.30;24.50;;;-1.00;99.90;;;;;;5031692;28;20033;-56
2022/01/25 06:27:11;;;;;;;175.18;24.88;;;-1.00;99.90;;;;;;5031614;28;20018;-58
2022/01/25 06:29:37;;;;;;;141.88;29.92;;;-1.00;99.90;;;;;;5031408;28;20049;-57
2022/01/25 06:32:03;;;;;;;105.32;40.72;;;-1.10;99.90;;;;;;5031141;28;20096;-57
2022/01/25 06:34:29;;;;;;;125.75;35.03;;;-1.10;99.90;;;;;;5031593;28;20556;-57
2022/01/25 06:36:54;;;;;;;210.68;44.88;;;-1.20;99.90;;;;;;5031401;28;20043;-56
2022/01/25 06:39:20;;;;;;;315.63;31.83;;;-1.20;99.90;;;;;;5031528;28;20482;-57
2022/01/25 06:41:46;;;;;;;377.67;27.70;;;-1.20;99.90;;;;;;5031306;28;20026;-57
2022/01/25 06:44:12;;;;;;;188.70;32.40;;;-1.20;99.90;;;;;;5031444;28;20025;-57
2022/01/25 06:46:38;;;;;;;83.40;26.27;;;-1.20;99.90;;;;;;5031552;28;20472;-57
2022/01/25 06:49:03;;;;;;;200.63;38.53;;;-1.10;99.90;;;;;;5031332;28;20038;-56
2022/01/25 06:51:30;;;;;;;254.55;23.60;;;-1.10;99.90;;;;;;5031599;28;20025;-56
2022/01/25 06:53:56;;;;;;;58.42;23.35;;;-1.10;99.90;;;;;;5029988;28;20109;-57
2022/01/25 06:56:21;;;;;;;146.02;25.63;;;-1.00;99.90;;;;;;5031356;28;20576;-57
2022/01/25 06:58:47;;;;;;;95.70;23.63;;;-1.10;99.90;;;;;;5031334;28;20026;-58
2022/01/25 07:01:13;;;;;;;126.32;25.10;;;-1.10;99.90;;;;;;5031404;28;20128;-57
2022/01/25 07:03:39;;;;;;;101.32;21.77;;;-1.20;99.90;;;;;;5031312;28;20641;-57
2022/01/25 07:06:04;;;;;;;122.75;26.13;;;-1.20;99.90;;;;;;5031305;28;20041;-57
2022/01/25 07:08:30;;;;;;;124.50;23.92;;;-1.10;99.90;;;;;;5031364;28;20029;-57
2022/01/25 07:10:56;;;;;;;131.90;23.80;;;-1.20;99.90;;;;;;5029808;28;20032;-55
2022/01/25 07:13:22;;;;;;;87.15;20.88;;;-1.20;99.90;;;;;;5031283;28;20029;-57
2022/01/25 07:15:47;;;;;;;200.85;19.73;;;-1.10;99.90;;;;;;5030957;28;20050;-57
2022/01/25 07:18:15;;;;;;;112.90;22.88;;;-1.00;99.90;;;;;;5031141;28;20102;-56
2022/01/25 07:20:41;;;;;;;79.25;20.02;;;-1.00;99.90;;;;;;5031230;28;20029;-57
2022/01/25 07:23:06;;;;;;;151.45;18.88;;;-1.00;99.90;;;;;;5030971;28;20032;-57
2022/01/25 07:25:32;;;;;;;120.18;21.15;;;-1.00;99.90;;;;;;5033189;28;20457;-57
2022/01/25 07:27:57;;;;;;;68.57;16.58;;;-1.00;99.90;;;;;;5034631;28;20080;-56
2022/01/25 07:30:23;;;;;;;31.10;12.85;;;-0.90;99.90;;;;;;5034923;28;20036;-57
2022/01/25 07:32:49;;;;;;;61.05;17.60;;;-1.00;99.90;;;;;;5034747;28;20031;-57
2022/01/25 07:35:15;;;;;;;88.28;22.52;;;-0.80;99.90;;;;;;5034961;28;20428;-56
2022/01/25 07:37:40;;;;;;;87.10;18.92;;;-0.80;99.90;;;;;;5034802;28;20041;-56
2022/01/25 07:40:07;;;;;;;80.68;24.40;;;-0.70;99.90;;;;;;5034737;28;20037;-55
2022/01/25 07:42:36;;;;;;;162.75;24.67;;;-0.80;99.90;;;;;;5034859;28;20025;-58
2022/01/25 07:45:07;;;;;;;81.90;21.15;;;-0.80;99.90;;;;;;5034617;28;20037;-56
2022/01/25 07:47:35;;;;;;;105.20;28.58;;;-0.70;99.90;;;;;;5034553;28;20042;-53
2022/01/25 07:50:00;;;;;;;57.97;20.70;;;-0.70;99.90;;;;;;5034505;28;20053;-57
2022/01/25 07:52:26;;;;;;;265.10;24.45;;;-0.60;99.90;;;;;;5034423;28;20061;-57
2022/01/25 07:54:51;;;;;;;319.02;31.25;;;-0.60;99.90;;;;;;5033114;28;20026;-57
2022/01/25 07:57:17;;;;;;;339.55;55.65;;;-0.60;99.90;;;;;;5034426;28;20028;-57
2022/01/25 07:59:43;;;;;;;180.10;19.77;;;-0.60;99.90;;;;;;5033038;28;20460;-56
2022/01/25 08:02:14;;;;;;;119.78;19.88;;;-0.50;99.90;;;;;;5034359;28;20037;-58
2022/01/25 08:04:40;;;;;;;48.08;20.95;;;-0.50;99.90;;;;;;5034163;28;20017;-57
2022/01/25 08:07:06;;;;;;;208.02;26.42;;;-0.60;99.90;;;;;;5034306;28;20377;-57
2022/01/25 08:09:31;;;;;;;80.22;20.92;;;-0.50;99.90;;;;;;5034136;28;20052;-57
2022/01/25 08:11:57;;;;;;;119.13;21.33;;;-0.40;99.90;;;;;;5034068;28;20025;-56
2022/01/25 08:14:23;;;;;;;66.22;17.38;;;-0.40;99.90;;;;;;5033832;28;20071;-55
2022/01/25 08:16:51;;;;;;;240.35;21.27;;;-0.40;99.90;;;;;;5032596;28;20187;-57
2022/01/25 08:19:18;;;;;;;92.60;19.33;;;-0.30;99.90;;;;;;5034123;28;20026;-56
2022/01/25 08:21:44;;;;;;;85.93;18.45;;;-0.30;99.90;;;;;;5033712;28;20028;-56
2022/01/25 08:24:11;;;;;;;93.70;19.35;;;-0.30;99.90;;;;;;5034192;28;20029;-57
2022/01/25 08:26:38;;;;;;;54.72;17.05;;;-0.30;99.90;;;;;;5034018;28;20082;-56
2022/01/25 08:29:05;;;;;;;70.68;20.17;;;-0.20;99.90;;;;;;5033506;28;20021;-55
2022/01/25 08:31:30;;;;;;;47.80;19.52;;;-0.10;99.90;;;;;;5033779;28;20025;-58
2022/01/25 08:33:56;;;;;;;96.45;20.58;;;-0.10;99.90;;;;;;5033711;28;20027;-56
2022/01/25 08:36:22;;;;;;;82.82;17.63;;;-0.10;99.90;;;;;;5032594;28;20056;-57
2022/01/25 08:38:48;;;;;;;117.97;18.92;;;0.00;99.90;;;;;;5033502;28;20045;-57
2022/01/25 08:41:15;;;;;;;93.15;15.85;;;0.20;99.90;;;;;;5033795;28;20026;-57
2022/01/25 08:43:41;;;;;;;90.35;16.48;;;0.20;99.90;;;;;;5033475;28;20041;-56
2022/01/25 08:46:07;;;;;;;113.38;15.93;;;0.10;99.90;;;;;;5032261;28;20026;-57
2022/01/25 08:48:32;;;;;;;204.38;18.25;;;0.30;99.90;;;;;;5033627;28;20034;-57
2022/01/25 08:50:58;;;;;;;113.00;15.40;;;0.20;99.90;;;;;;5033479;28;20040;-57
2022/01/25 08:53:25;;;;;;;30.40;13.20;;;0.20;99.90;;;;;;5033421;28;20037;-56
2022/01/25 08:55:50;;;;;;;36.33;11.98;;;0.20;99.90;;;;;;5031970;28;20036;-57
2022/01/25 08:58:16;;;;;;;35.22;11.43;;;0.40;99.90;;;;;;5033391;28;20464;-57
2022/01/25 09:00:42;;;;;;;71.00;12.18;;;0.60;99.90;;;;;;5033101;28;20029;-56
2022/01/25 09:03:07;;;;;;;64.60;10.23;;;0.60;99.90;;;;;;5033276;28;20026;-57
2022/01/25 09:05:34;;;;;;;37.33;11.70;;;0.40;99.90;;;;;;5031905;28;20056;-57
2022/01/25 09:08:01;;;;;;;35.65;9.52;;;0.40;99.90;;;;;;5032964;28;20263;-57
2022/01/25 09:10:27;;;;;;;24.75;11.25;;;0.50;99.90;;;;;;5032917;28;20033;-57
2022/01/25 09:12:54;;;;;;;51.58;11.10;;;0.70;99.90;;;;;;5032508;28;20029;-57
2022/01/25 09:15:20;;;;;;;72.13;13.27;;;0.80;99.90;;;;;;5032595;28;20441;-57
2022/01/25 09:17:47;;;;;;;64.85;13.25;;;0.70;99.90;;;;;;5032787;28;20021;-57
2022/01/25 09:20:12;;;;;;;158.45;18.67;;;0.60;99.90;;;;;;5032920;28;20025;-53
2022/01/25 09:22:38;;;;;;;17.98;11.18;;;0.30;99.90;;;;;;5032895;28;20489;-56
2022/01/25 09:25:04;;;;;;;153.15;13.82;;;0.50;99.90;;;;;;5031616;28;20373;-57
2022/01/25 09:27:30;;;;;;;136.88;15.05;;;0.50;99.90;;;;;;5032726;28;20021;-56
2022/01/25 09:29:55;;;;;;;14.07;10.32;;;0.40;99.90;;;;;;5032668;28;20027;-57
2022/01/25 09:32:21;;;;;;;73.60;10.40;;;0.60;99.90;;;;;;5031413;28;20040;-57
2022/01/25 09:34:47;;;;;;;146.80;13.77;;;0.90;99.90;;;;;;5032465;28;20029;-57
2022/01/25 09:37:13;;;;;;;47.40;10.35;;;0.70;99.90;;;;;;5032497;28;20017;-57
2022/01/25 09:39:39;;;;;;;177.80;14.10;;;0.80;99.90;;;;;;5032561;28;20033;-55
2022/01/25 09:42:09;;;;;;;252.27;18.00;;;0.60;99.90;;;;;;5032332;28;20052;-57
2022/01/25 09:44:39;;;;;;;26.00;10.18;;;0.60;99.90;;;;;;5032205;28;20021;-58
2022/01/25 09:47:07;;;;;;;30.52;12.00;;;0.80;99.90;;;;;;5031932;28;20021;-57
2022/01/25 09:49:33;;;;;;;183.90;16.83;;;1.00;99.90;;;;;;5031071;28;20025;-56
2022/01/25 09:52:04;;;;;;;57.70;11.43;;;0.90;99.90;;;;;;5032164;28;20025;-57
2022/01/25 09:54:31;;;;;;;84.03;16.35;;;1.20;99.90;;;;;;5032295;28;20029;-56
2022/01/25 09:56:57;;;;;;;168.93;17.10;;;1.30;99.90;;;;;;5032017;28;20119;-58
2022/01/25 09:59:26;;;;;;;236.18;21.42;;;1.30;99.90;;;;;;5032204;28;20029;-57
2022/01/25 10:01:52;;;;;;;223.73;63.45;;;1.00;99.90;;;;;;5032014;28;20037;-57
2022/01/25 10:04:33;;;;;;;93.32;18.67;;;0.80;99.90;;;;;;5031642;28;20022;-57
2022/01/25 10:06:59;;;;;;;318.70;30.05;;;0.80;99.90;;;;;;5031850;28;20060;-56
2022/01/25 10:09:28;;;;;;;47.95;16.10;;;0.60;99.90;;;;;;5030551;28;20112;-57
2022/01/25 10:11:55;;;;;;;60.65;15.23;;;0.80;99.90;;;;;;5031557;28;20028;-57
2022/01/25 10:14:23;;;;;;;249.07;21.27;;;0.90;99.90;;;;;;5031801;28;20033;-56
2022/01/25 10:16:55;;;;;;;83.70;21.02;;;0.70;99.90;;;;;;5031816;28;20026;-57
2022/01/25 10:19:25;;;;;;;195.77;21.08;;;0.80;99.90;;;;;;5031929;28;20404;-58
2022/01/25 10:21:52;;;;;;;191.93;42.50;;;0.80;99.90;;;;;;5031678;28;20112;-57
2022/01/25 10:24:21;;;;;;;20.83;13.38;;;0.80;99.90;;;;;;5031896;28;20439;-58
2022/01/25 10:26:55;;;;;;;168.10;19.77;;;1.10;99.90;;;;;;5031423;28;20030;-57
2022/01/25 10:29:23;;;;;;;60.47;14.27;;;1.20;99.90;;;;;;5031787;28;20067;-57
2022/01/25 10:31:52;;;;;;;40.38;14.90;;;1.20;99.90;;;;;;5031520;28;20056;-57
2022/01/25 10:34:27;;;;;;;149.23;17.40;;;1.60;99.90;;;;;;5031706;28;20362;-57
2022/01/25 10:36:53;;;;;;;99.03;17.20;;;1.60;99.90;;;;;;5030047;28;20033;-57
2022/01/25 10:39:31;;;;;;;30.00;17.13;;;1.40;99.90;;;;;;5031681;28;20053;-57
2022/01/25 10:42:26;;;;;;;57.83;18.52;;;1.20;99.90;;;;;;5031361;28;20031;-57
2022/01/25 10:45:03;;;;;;;41.08;16.15;;;1.30;99.90;;;;;;5031478;28;20022;-56
2022/01/25 10:47:38;;;;;;;50.20;20.77;;;1.30;99.90;;;;;;5031473;28;20067;-58
2022/01/25 10:50:15;;;;;;;74.78;19.33;;;1.40;99.90;;;;;;5031409;28;20026;-57
2022/01/25 10:52:41;;;;;;;59.13;18.65;;;1.50;99.90;;;;;;5031508;28;20028;-57
2022/01/25 10:55:07;;;;;;;35.78;16.15;;;1.60;99.90;;;;;;5031390;28;20356;-56
2022/01/25 10:57:33;;;;;;;81.55;17.83;;;1.60;99.90;;;;;;5031072;28;20025;-58
2022/01/25 11:00:01;;;;;;;34.42;15.05;;;1.90;99.90;;;;;;5032425;28;20495;-56
2022/01/25 11:02:27;;;;;;;38.90;17.75;;;2.40;99.90;;;;;;5035198;28;20377;-57
2022/01/25 11:05:05;;;;;;;41.70;17.58;;;2.50;99.90;;;;;;5035430;28;20056;-57
2022/01/25 11:07:46;;;;;;;51.67;16.70;;;2.20;99.90;;;;;;5035428;28;20372;-56
2022/01/25 11:10:17;;;;;;;81.85;16.75;;;2.50;99.90;;;;;;5035348;28;20029;-57
2022/01/25 11:12:58;;;;;;;144.55;20.02;;;2.40;99.90;;;;;;5035405;28;20402;-57
2022/01/25 11:15:24;;;;;;;75.70;17.33;;;2.30;99.90;;;;;;5035138;28;20037;-57
2022/01/25 11:17:50;;;;;;;49.38;13.30;;;2.60;99.90;;;;;;5035055;28;20022;-56
2022/01/25 11:20:15;;;;;;;229.85;17.90;;;2.80;99.90;;;;;;5035261;28;20366;-57
2022/01/25 11:22:44;;;;;;;180.57;37.67;;;2.70;99.90;;;;;;5035130;28;20114;-58
2022/01/25 11:25:10;;;;;;;53.47;18.80;;;2.00;99.90;;;;;;5035039;28;20056;-57
2022/01/25 11:27:39;;;;;;;40.20;15.32;;;1.80;99.90;;;;;;5035038;28;20033;-56
2022/01/25 11:30:10;;;;;;;30.83;16.60;;;1.90;99.90;;;;;;5035035;28;20120;-58
2022/01/25 11:32:41;;;;;;;36.72;13.70;;;2.60;99.90;;;;;;5035059;28;20064;-58
2022/01/25 11:35:10;;;;;;;25.92;15.10;;;2.80;99.90;;;;;;5034875;28;20028;-57
2022/01/25 11:37:38;;;;;;;30.67;14.13;;;2.90;99.90;;;;;;5034920;28;20021;-58
2022/01/25 11:40:25;;;;;;;24.88;15.68;;;3.10;99.90;;;;;;5034736;28;20017;-56
2022/01/25 11:42:55;;;;;;;38.85;17.42;;;3.00;99.90;;;;;;5033983;28;20122;-57
2022/01/25 11:45:26;;;;;;;33.60;19.27;;;2.60;99.90;;;;;;5034768;28;20112;-58
2022/01/25 11:47:54;;;;;;;34.38;18.25;;;2.60;99.90;;;;;;5034358;28;20036;-58
2022/01/25 11:50:24;;;;;;;28.60;17.10;;;2.50;99.90;;;;;;5034657;28;20075;-55
2022/01/25 11:52:52;;;;;;;25.42;16.17;;;2.50;99.90;;;;;;5034509;28;20065;-58
2022/01/25 11:55:31;;;;;;;30.13;17.10;;;2.60;99.90;;;;;;5034510;28;20013;-57
2022/01/25 11:58:03;;;;;;;27.08;16.23;;;2.70;99.90;;;;;;5034423;28;20033;-57
2022/01/25 12:00:50;;;;;;;26.88;16.75;;;3.00;99.90;;;;;;5034397;28;20068;-58
2022/01/25 12:03:35;;;;;;;26.88;16.25;;;3.00;99.90;;;;;;5034371;28;20030;-56
2022/01/25 12:06:19;;;;;;;27.70;17.58;;;2.90;99.90;;;;;;5034179;28;20349;-56
2022/01/25 12:11:40;;;;;;;26.75;16.88;;;2.80;99.90;;;;;;5034161;28;19911;-58
2022/01/25 12:14:37;;;;;;;21.95;14.57;;;2.70;99.90;;;;;;5034330;28;20022;-56
2022/01/25 12:17:03;;;;;;;24.00;15.20;;;2.80;99.90;;;;;;5033889;28;20029;-57
2022/01/25 12:19:51;;;;;;;20.75;14.63;;;2.80;99.90;;;;;;5034143;28;20029;-58
2022/01/25 12:22:20;;;;;;;23.65;14.90;;;2.90;99.90;;;;;;5034033;28;20036;-57
2022/01/25 12:28:03;;;;;;;21.02;14.95;;;3.00;99.90;;;;;;5033825;28;20034;-56
2022/01/25 12:30:46;;;;;;;27.40;14.77;;;2.90;99.90;;;;;;5033434;28;20511;-57
2022/01/25 12:33:24;;;;;;;25.52;16.50;;;2.80;99.90;;;;;;5033999;28;20040;-57
2022/01/25 12:36:09;;;;;;;25.70;17.75;;;2.90;99.90;;;;;;5033593;28;20022;-57
2022/01/25 12:38:49;;;;;;;23.52;15.52;;;2.90;99.90;;;;;;5033774;28;20071;-55
2022/01/25 12:41:23;;;;;;;22.25;15.25;;;2.70;99.90;;;;;;5033835;28;20029;-57
2022/01/25 12:43:54;;;;;;;27.58;16.52;;;2.60;99.90;;;;;;5033644;28;20079;-57
2022/01/25 12:46:19;;;;;;;29.70;19.55;;;2.30;99.90;;;;;;5033104;28;20542;-55
2022/01/25 12:48:54;;;;;;;23.63;15.48;;;2.20;99.90;;;;;;5033078;28;20100;-58
2022/01/25 12:51:21;;;;;;;26.92;16.85;;;2.50;99.90;;;;;;5032139;28;20378;-57
2022/01/25 12:53:50;;;;;;;26.77;16.80;;;2.50;99.90;;;;;;5033405;28;20029;-57
2022/01/25 12:56:21;;;;;;;24.30;16.67;;;2.50;99.90;;;;;;5033497;28;20373;-56
2022/01/25 12:58:56;;;;;;;24.65;15.85;;;2.40;99.90;;;;;;5033320;28;20025;-57
2022/01/25 13:01:24;;;;;;;24.95;15.68;;;2.30;99.90;;;;;;5033501;28;20018;-57
2022/01/25 13:03:57;;;;;;;33.55;16.83;;;2.30;99.90;;;;;;5031970;28;20716;-57
2022/01/25 13:06:26;;;;;;;25.52;14.90;;;2.20;99.90;;;;;;5033168;28;20036;-54
2022/01/25 13:09:13;;;;;;;25.15;16.30;;;2.30;99.90;;;;;;5032994;28;20350;-57
2022/01/25 13:12:11;;;;;;;22.80;15.50;;;2.30;99.90;;;;;;5033120;28;20021;-54
2022/01/25 13:17:15;;;;;;;23.38;16.20;;;2.40;99.90;;;;;;5032994;28;20043;-56
2022/01/25 13:19:56;;;;;;;30.20;17.80;;;2.40;99.90;;;;;;5032752;28;20503;-57
2022/01/25 13:22:24;;;;;;;33.25;15.95;;;2.20;99.90;;;;;;5032338;28;20033;-57
2022/01/25 13:25:27;;;;;;;26.83;15.90;;;2.20;99.90;;;;;;5032751;28;20033;-58
2022/01/25 13:27:58;;;;;;;22.33;15.93;;;2.30;99.90;;;;;;5032513;28;20025;-54
2022/01/25 13:30:40;;;;;;;21.05;15.18;;;2.30;99.90;;;;;;5032857;28;20068;-57
2022/01/25 13:33:11;;;;;;;23.13;15.90;;;2.40;99.90;;;;;;5032732;28;20025;-56
2022/01/25 13:35:41;;;;;;;20.67;15.65;;;2.30;99.90;;;;;;5032570;28;20264;-55
2022/01/25 13:38:36;;;;;;;21.35;14.35;;;2.30;99.90;;;;;;5032599;28;20080;-56
2022/01/25 13:46:37;;;;;;;23.73;15.82;;;2.00;99.90;;;;;;5032520;28;20036;-57
2022/01/25 13:49:16;;;;;;;23.40;16.35;;;2.20;99.90;;;;;;5032132;28;20072;-58
2022/01/25 13:51:53;;;;;;;24.58;17.85;;;2.30;99.90;;;;;;5032191;28;20576;-57
2022/01/25 13:54:22;;;;;;;26.77;16.98;;;2.30;99.90;;;;;;5032367;28;20029;-56
2022/01/25 13:56:48;;;;;;;21.95;17.10;;;2.20;99.90;;;;;;5032149;28;20026;-57
2022/01/25 13:59:15;;;;;;;29.17;16.73;;;2.00;99.90;;;;;;5032235;28;20607;-58
2022/01/25 14:01:42;;;;;;;24.33;16.25;;;2.20;99.90;;;;;;5032054;28;20552;-56
2022/01/25 14:04:24;;;;;;;23.05;16.65;;;2.40;99.90;;;;;;5030878;28;20412;-56
2022/01/25 14:06:52;;;;;;;27.85;15.82;;;2.60;99.90;;;;;;5031944;28;20654;-56
2022/01/25 14:09:32;;;;;;;22.38;15.32;;;2.80;99.90;;;;;;5032153;28;20099;-56
2022/01/25 14:25:30;;;;;;;24.42;16.48;;;2.70;99.90;;;;;;5031863;28;20036;-55
2022/01/25 14:27:58;;;;;;;22.23;15.75;;;2.60;99.90;;;;;;5031614;28;20028;-56
2022/01/25 14:30:24;;;;;;;20.98;15.15;;;2.50;99.90;;;;;;5031787;28;20029;-54
2022/01/25 14:33:03;;;;;;;26.85;16.52;;;2.50;99.90;;;;;;5031277;28;20061;-56
2022/01/25 14:35:32;;;;;;;27.08;17.02;;;2.40;99.90;;;;;;5030475;28;20021;-57
2022/01/25 14:37:59;;;;;;;23.95;16.45;;;2.40;99.90;;;;;;5031479;28;20469;-54
2022/01/25 14:40:26;;;;;;;42.97;22.75;;;2.50;99.90;;;;;;5031778;28;20052;-57
2022/01/25 14:42:53;;;;;;;46.90;28.17;;;2.30;99.90;;;;;;5031449;28;20030;-58
2022/01/25 14:45:23;;;;;;;25.40;16.95;;;2.30;99.90;;;;;;5030255;28;20477;-57